San Gregorio, CA (94074)

11:18 PM PDT on September 01, 2014 (GMT -0700)
Pinnacle Ranch | Change Station
CLOSE
Current Station
Personal Weather Station
Location: San Gregorio, CA
Elevation: 570 ft
Nearby Weather Stations

Elev 570 ft 37.30 °N, 122.38 °W | Updated 12 seconds ago

Mostly Cloudy
Mostly Cloudy
54.0 °F
Feels Like 54.0 °F
N
2.0
Wind Variable Wind from West
Gusts 7.0 mph

Today
High -- | Low -- °F
--% Chance of Precip.
Yesterday
High -- | Low -- °F
Precip. -- in
6:40 AM 7:38 PM
Waxing Crescent, 48% visible
Pressure 29.80 in
Visibility 10.0 miles
Clouds Clear
Dew Point Not available.
Humidity Not available.
Rainfall 0.02 in
Snow Depth Not available.
UV 0 out of 12
Pollen 8.40 out of 12
Air Quality Not available.
Flu Activity Not available.
METAR KSQL 020610Z AUTO 35003KT 10SM CLR 19/13 A2980 RMK AO2

More Conditions Fewer Conditions

Pressure 29.80 in
Visibility 10.0 miles
Clouds Clear
Dew Point Not available.
Humidity Not available.
Rainfall 0.02 in
Snow Depth Not available.
UV 0 out of 12
Pollen 8.40 out of 12
Air Quality Not available.
Flu Activity Not available.
METAR KSQL 020610Z AUTO 35003KT 10SM CLR 19/13 A2980 RMK AO2

More Conditions Fewer Conditions

10-Day Weather Forecast

Almanac

Astronomy

Sep. 01, 2014 Rise Set
Actual Time 6:40 AM PDT 7:38 PM PDT
Civil Twilight 6:13 AM PDT 8:04 PM PDT
Nautical Twilight 5:41 AM PDT 8:36 PM PDT
Astronomical Twilight 5:08 AM PDT 9:08 PM PDT
Moon 1:22 PM PDT (9/1) 11:52 PM PDT (9/1)
Length of Visible Light 13h 51m
Length of Day
12h 58m
Tomorrow will be 2m 17s shorter.
Waxing Crescent, 48% of the Moon is Illuminated
Sep 2
Waxing Crescent
Sep 2
First Quarter
Sep 8
Full
Sep 15
Last Quarter
Sep 24
New

Community

WunderPhotos

Upload Photos

1,749,581 photos uploaded!

WunderBlogs® & News

Nearby

Snow Depth

Station Depth Elevation
Blue Lakes 0 in 8000 ft
Forestdale Creek 0 in 8029 ft
Leavitt Lake 0 in 9400 ft
Echo Peak 0 in 7800 ft
Rubicon #2 0 in 7500 ft

Earthquake Activity

City Distance Mag. Time & Date
Yountville, California 73 miles 2.6 1:15 PM PDT
2014-09-01
Gilroy, California 54 miles 3.5 9:10 AM PDT
2014-09-01
Green Valley, California 66 miles 2.5 6:37 AM PDT
2014-08-31
Napa, California 64 miles 3.2 1:56 AM PDT
2014-08-31
Minimum magnitude displayed is 2.5.

Coastal Water Temperatures

Place Temperature
Point Reyes, CA 60.1 °F
San Francisco, CA 64.9 °F
Richmond, CA 69.1 °F

Nearby Weather Stations